Time;durP1;ratioP1;P1;durP2;ratioP2;P2;SDS_P1;SDS_P2;PMS_P1;PMS_P2;Temp;Humidity;BMP_temperature;BMP_pressure;BME280_temperature;BME280_humidity;BME280_pressure;Samples;Min_cycle;Max_cycle;Signal;HPM_P1;HPM_P2
2021/11/06 00:01:15;;;;;;;8.95;5.93;;;;;;;13.06;65.08;99406.03;5071682;28;20025;-58
2021/11/06 00:03:41;;;;;;;8.60;5.68;;;;;;;13.10;65.10;99411.97;5070272;28;20047;-58
2021/11/06 00:06:06;;;;;;;8.93;5.90;;;;;;;13.10;65.47;99403.91;5072217;28;20028;-58
2021/11/06 00:08:32;;;;;;;8.15;5.53;;;;;;;13.03;65.39;99393.78;5071537;28;20040;-58
2021/11/06 00:10:58;;;;;;;8.77;5.93;;;;;;;13.07;65.41;99399.66;5071685;28;20483;-55
2021/11/06 00:13:23;;;;;;;8.55;5.38;;;;;;;13.04;65.54;99408.91;5071963;28;20460;-56
2021/11/06 00:15:49;;;;;;;9.50;5.70;;;;;;;13.04;65.37;99411.59;5071999;28;20047;-54
2021/11/06 00:18:14;;;;;;;8.60;6.05;;;;;;;12.97;65.76;99394.34;5070904;28;20125;-56
2021/11/06 00:20:40;;;;;;;8.70;5.97;;;;;;;12.96;65.53;99411.47;5071413;28;20032;-54
2021/11/06 00:23:06;;;;;;;10.13;6.53;;;;;;;12.95;65.49;99399.03;5072054;28;20078;-57
2021/11/06 00:25:31;;;;;;;9.18;6.45;;;;;;;12.91;65.67;99400.34;5070472;28;20051;-59
2021/11/06 00:27:57;;;;;;;8.52;6.45;;;;;;;12.89;65.47;99396.94;5053431;28;20033;-55
2021/11/06 00:30:23;;;;;;;8.57;6.25;;;;;;;12.89;65.67;99403.16;5071451;28;20461;-58
2021/11/06 00:32:48;;;;;;;8.75;6.70;;;;;;;12.86;65.55;99391.88;5071768;28;20081;-56
2021/11/06 00:35:15;;;;;;;10.02;7.32;;;;;;;12.85;65.71;99382.13;5071627;28;20029;-53
2021/11/06 00:37:41;;;;;;;10.20;6.25;;;;;;;12.91;65.81;99386.91;5071186;28;20024;-53
2021/11/06 00:40:09;;;;;;;10.20;6.57;;;;;;;12.89;65.89;99384.34;5071107;28;20089;-55
2021/11/06 00:42:35;;;;;;;9.27;6.78;;;;;;;12.89;65.83;99380.84;5061607;28;20357;-55
2021/11/06 00:45:01;;;;;;;9.60;6.53;;;;;;;12.91;65.96;99386.91;5091651;28;20040;-54
2021/11/06 00:47:26;;;;;;;10.55;7.43;;;;;;;12.83;65.86;99376.06;5091125;28;20070;-54
2021/11/06 00:49:52;;;;;;;12.70;6.75;;;;;;;12.88;65.75;99384.50;5091713;28;20059;-55
2021/11/06 00:52:18;;;;;;;9.88;6.95;;;;;;;12.89;66.12;99380.84;5091811;28;20028;-53
2021/11/06 00:54:43;;;;;;;11.85;7.00;;;;;;;12.85;66.06;99387.50;5091774;28;20037;-55
2021/11/06 00:57:09;;;;;;;11.40;7.03;;;;;;;12.61;66.01;99336.00;5090884;28;20449;-56
2021/11/06 00:59:34;;;;;;;9.85;6.97;;;;;;;12.84;65.72;99393.88;5091075;28;20384;-58
2021/11/06 01:02:00;;;;;;;10.18;7.55;;;;;;;12.83;65.61;99381.44;5091555;28;20347;-55
2021/11/06 01:04:25;;;;;;;12.82;7.63;;;;;;;12.82;65.75;99383.25;5091333;28;20032;-55
2021/11/06 01:06:51;;;;;;;9.25;6.63;;;;;;;12.81;65.85;99391.50;5091215;28;20329;-54
2021/11/06 01:09:17;;;;;;;12.25;7.53;;;;;;;12.82;65.72;99388.63;5091026;28;20456;-55
2021/11/06 01:11:42;;;;;;;10.70;7.43;;;;;;;12.84;65.76;99383.97;5091441;28;20458;-57
2021/11/06 01:14:09;;;;;;;10.25;7.40;;;;;;;12.88;65.50;99389.88;5091139;28;20413;-56
2021/11/06 01:16:34;;;;;;;11.52;6.93;;;;;;;12.90;65.52;99385.22;5091144;28;20055;-55
2021/11/06 01:19:00;;;;;;;11.68;7.32;;;;;;;12.95;65.57;99380.22;5090664;28;20471;-56
2021/11/06 01:21:25;;;;;;;9.70;6.80;;;;;;;13.00;65.46;99383.31;5091242;28;20119;-59
2021/11/06 01:23:51;;;;;;;9.82;6.95;;;;;;;13.02;65.42;99389.41;5090610;28;20463;-57
2021/11/06 01:26:17;;;;;;;12.15;7.22;;;;;;;13.03;65.25;99401.84;5072562;28;20035;-56
2021/11/06 01:28:43;;;;;;;9.07;6.78;;;;;;;13.06;65.07;99398.84;5091184;28;20024;-55
2021/11/06 01:31:09;;;;;;;12.05;7.53;;;;;;;13.04;64.75;99406.22;5095162;28;20027;-54
2021/11/06 01:33:34;;;;;;;10.68;7.10;;;;;;;13.04;65.13;99411.59;5094787;28;20039;-59
2021/11/06 01:36:00;;;;;;;11.40;7.15;;;;;;;13.06;64.17;99404.22;5094892;28;20495;-55
2021/11/06 01:38:25;;;;;;;11.90;7.30;;;;;;;13.00;63.71;99410.16;5094951;28;20440;-58
2021/11/06 01:40:51;;;;;;;11.95;7.53;;;;;;;12.95;63.51;99407.09;5094920;28;20051;-57
2021/11/06 01:43:17;;;;;;;10.55;7.60;;;;;;;12.68;63.52;99357.75;5094514;28;20444;-56
2021/11/06 01:45:42;;;;;;;9.90;7.57;;;;;;;12.77;64.04;99402.50;5094080;28;20473;-56
2021/11/06 01:48:08;;;;;;;10.57;6.85;;;;;;;12.62;64.48;99398.63;5094736;28;20439;-56
2021/11/06 01:50:34;;;;;;;13.15;7.45;;;;;;;12.50;64.80;99392.59;5094548;28;20032;-58
2021/11/06 01:52:59;;;;;;;10.30;7.28;;;;;;;12.44;65.02;99399.41;5095021;28;20028;-56
2021/11/06 01:55:25;;;;;;;11.82;7.53;;;;;;;12.20;65.01;99362.34;5094999;28;20103;-55
2021/11/06 01:57:52;;;;;;;12.65;7.72;;;;;;;12.43;64.38;99405.75;5093557;28;20028;-57
2021/11/06 02:00:24;;;;;;;11.88;7.95;;;;;;;12.45;64.41;99390.34;5094612;28;20035;-53
2021/11/06 02:02:50;;;;;;;9.48;7.00;;;;;;;12.40;63.92;99397.16;5094590;28;20114;-58
2021/11/06 02:05:16;;;;;;;13.05;8.10;;;;;;;12.37;63.83;99392.94;5094122;28;20143;-56
2021/11/06 02:07:42;;;;;;;13.77;7.97;;;;;;;12.36;63.90;99407.34;5094185;28;20058;-57
2021/11/06 02:10:09;;;;;;;13.82;7.97;;;;;;;12.33;63.67;99397.75;5094529;28;20384;-57
2021/11/06 02:12:35;;;;;;;11.65;7.85;;;;;;;12.27;63.82;99394.78;5094231;28;20503;-56
2021/11/06 02:15:02;;;;;;;12.23;7.53;;;;;;;12.19;64.06;99396.38;5093977;28;20036;-54
2021/11/06 02:17:28;;;;;;;13.05;7.55;;;;;;;12.13;63.72;99410.38;5094368;28;20088;-56
2021/11/06 02:19:54;;;;;;;14.07;8.18;;;;;;;12.10;63.86;99413.34;5094706;28;20043;-58
2021/11/06 02:22:20;;;;;;;11.85;7.32;;;;;;;12.06;63.87;99418.13;5094196;28;20118;-55
2021/11/06 02:24:45;;;;;;;12.55;7.70;;;;;;;12.01;63.32;99416.88;5093903;28;20036;-61
2021/11/06 02:27:11;;;;;;;12.45;7.43;;;;;;;12.05;63.21;99420.94;5094162;28;20111;-57
2021/11/06 02:29:36;;;;;;;11.25;6.97;;;;;;;12.04;62.26;99430.00;5094291;28;20028;-55
2021/11/06 02:32:06;;;;;;;11.18;6.65;;;;;;;12.02;61.43;99426.59;5093726;28;20032;-56
2021/11/06 02:34:32;;;;;;;12.18;5.85;;;;;;;11.90;61.11;99418.69;5093601;28;20023;-54
2021/11/06 02:36:58;;;;;;;9.70;5.53;;;;;;;11.94;59.51;99419.28;5093474;28;20105;-54
2021/11/06 02:39:23;;;;;;;8.18;5.18;;;;;;;11.73;59.71;99406.00;5093980;28;20414;-57
2021/11/06 02:41:56;;;;;;;9.25;4.93;;;;;;;11.73;59.61;99414.91;5093726;28;20024;-55
2021/11/06 02:44:21;;;;;;;6.10;4.65;;;;;;;11.66;59.02;99400.34;5092397;28;20032;-55
2021/11/06 02:46:47;;;;;;;9.57;4.50;;;;;;;11.59;58.43;99418.84;5093810;28;20540;-54
2021/11/06 02:49:12;;;;;;;6.22;4.75;;;;;;;11.58;58.76;99427.03;5093267;28;20073;-55
2021/11/06 02:51:38;;;;;;;7.07;4.40;;;;;;;11.42;58.72;99404.28;5093324;28;20509;-56
2021/11/06 02:54:03;;;;;;;5.78;3.95;;;;;;;11.38;58.34;99413.59;5093050;28;20024;-56
2021/11/06 02:56:29;;;;;;;7.13;4.20;;;;;;;11.21;58.90;99423.16;5093837;28;20119;-55
2021/11/06 02:58:55;;;;;;;5.43;4.00;;;;;;;11.08;58.98;99423.44;5093691;28;20028;-57
2021/11/06 03:01:22;;;;;;;8.00;4.07;;;;;;;10.89;59.31;99429.59;5093397;28;20080;-58
2021/11/06 03:03:48;;;;;;;7.00;3.80;;;;;;;10.70;59.26;99431.19;5092457;28;20118;-57
2021/11/06 03:06:13;;;;;;;5.38;3.28;;;;;;;10.55;59.14;99435.19;5091104;28;20039;-55
2021/11/06 03:08:39;;;;;;;6.55;3.35;;;;;;;10.38;59.21;99421.44;5074338;28;20063;-56
2021/11/06 03:11:05;;;;;;;5.65;3.28;;;;;;;10.26;58.23;99422.47;5093349;28;20024;-56
2021/11/06 03:13:31;;;;;;;3.08;2.60;;;;;;;10.12;58.42;99415.66;5093504;28;20113;-51
2021/11/06 03:15:57;;;;;;;4.40;2.95;;;;;;;10.03;58.06;99426.16;5092606;28;20040;-54
2021/11/06 03:18:22;;;;;;;2.80;2.55;;;;;;;9.91;58.32;99420.03;5092031;28;20036;-57
2021/11/06 03:20:48;;;;;;;6.13;2.75;;;;;;;9.80;58.14;99416.56;5092657;28;20043;-59
2021/11/06 03:23:14;;;;;;;2.60;2.40;;;;;;;9.70;58.29;99413.81;5092243;28;20028;-57
2021/11/06 03:25:39;;;;;;;2.85;2.42;;;;;;;9.57;58.29;99417.50;5073818;28;20093;-56
2021/11/06 03:28:05;;;;;;;2.83;2.58;;;;;;;9.40;58.89;99420.69;5092088;28;20035;-56
2021/11/06 03:30:31;;;;;;;3.38;3.00;;;;;;;9.28;59.01;99420.75;5092407;28;20039;-56
2021/11/06 03:32:57;;;;;;;4.25;2.53;;;;;;;9.28;59.44;99428.75;5092074;28;20032;-56
2021/11/06 03:35:23;;;;;;;3.25;2.80;;;;;;;9.26;59.57;99430.72;5091832;28;20024;-57
2021/11/06 03:37:49;;;;;;;3.00;2.72;;;;;;;9.20;59.43;99417.88;5091203;28;20024;-53
2021/11/06 03:40:14;;;;;;;3.45;2.80;;;;;;;9.22;59.32;99412.38;5092879;28;20035;-59
2021/11/06 03:42:41;;;;;;;5.20;3.00;;;;;;;9.19;59.50;99409.00;5092380;28;20081;-55
2021/11/06 03:45:08;;;;;;;3.20;2.90;;;;;;;9.20;59.34;99415.19;5092005;28;20036;-59
2021/11/06 03:47:34;;;;;;;4.28;3.13;;;;;;;9.08;59.38;99408.16;5093028;28;20040;-56
2021/11/06 03:50:00;;;;;;;3.83;3.25;;;;;;;9.17;59.76;99424.28;5092732;28;20028;-59
2021/11/06 03:52:26;;;;;;;4.55;3.20;;;;;;;9.13;59.75;99411.31;5091378;28;20364;-58
2021/11/06 03:54:51;;;;;;;3.58;3.10;;;;;;;9.18;59.32;99422.47;5092357;28;20093;-59
2021/11/06 03:57:17;;;;;;;5.68;3.00;;;;;;;9.15;59.42;99420.91;5092799;28;20039;-55
2021/11/06 03:59:43;;;;;;;4.38;3.28;;;;;;;9.14;59.59;99408.53;5092022;28;20028;-57
2021/11/06 04:02:08;;;;;;;4.00;3.50;;;;;;;9.18;59.66;99417.97;5092045;28;20032;-57
2021/11/06 04:04:34;;;;;;;3.45;3.03;;;;;;;8.94;59.65;99364.75;5092423;28;20452;-56
2021/11/06 04:06:59;;;;;;;3.92;3.53;;;;;;;9.18;59.43;99401.13;5092164;28;20032;-57
2021/11/06 04:09:25;;;;;;;4.25;3.28;;;;;;;9.20;59.68;99409.84;5091835;28;20671;-56
2021/11/06 04:11:51;;;;;;;4.30;3.53;;;;;;;9.23;59.80;99408.72;5073631;28;20032;-58
2021/11/06 04:14:16;;;;;;;8.60;3.10;;;;;;;9.16;59.67;99395.88;5092223;28;20119;-57
2021/11/06 04:16:42;;;;;;;4.05;3.10;;;;;;;9.25;59.57;99413.00;5073479;28;20078;-56
2021/11/06 04:19:07;;;;;;;3.83;3.38;;;;;;;9.19;59.38;99403.66;5091645;28;20122;-57
2021/11/06 04:21:33;;;;;;;3.70;3.40;;;;;;;9.25;59.94;99407.66;5092093;28;20058;-59
2021/11/06 04:23:59;;;;;;;4.15;3.30;;;;;;;9.09;60.02;99392.03;5091943;28;20119;-58
2021/11/06 04:26:25;;;;;;;4.05;3.05;;;;;;;9.28;59.42;99423.41;5092084;28;20028;-59
2021/11/06 04:28:51;;;;;;;5.15;3.83;;;;;;;9.25;59.42;99412.13;5091912;28;20028;-57
2021/11/06 04:31:16;;;;;;;4.53;3.33;;;;;;;9.24;59.42;99413.97;5091339;28;20086;-56
2021/11/06 04:33:42;;;;;;;4.15;3.30;;;;;;;9.25;59.38;99414.78;5091577;28;20133;-57
2021/11/06 04:36:08;;;;;;;3.63;3.30;;;;;;;9.27;59.77;99419.06;5091950;28;20028;-57
2021/11/06 04:38:34;;;;;;;3.78;3.30;;;;;;;9.30;59.42;99416.13;5091420;28;20024;-54
2021/11/06 04:41:00;;;;;;;3.08;2.75;;;;;;;9.36;59.54;99411.25;5091352;28;20032;-60
2021/11/06 04:43:25;;;;;;;3.45;3.15;;;;;;;9.41;59.81;99411.75;5091874;28;20100;-56
2021/11/06 04:45:51;;;;;;;3.58;3.28;;;;;;;9.47;59.23;99409.38;5091705;28;20120;-55
2021/11/06 04:48:17;;;;;;;5.72;3.25;;;;;;;9.45;59.23;99411.34;5091115;28;20032;-59
2021/11/06 04:50:42;;;;;;;4.18;3.00;;;;;;;9.53;58.80;99410.72;5090973;28;20430;-56
2021/11/06 04:53:08;;;;;;;4.93;3.22;;;;;;;9.55;58.96;99410.59;5091583;28;20024;-56
2021/11/06 04:55:33;;;;;;;3.67;2.50;;;;;;;9.56;59.03;99402.44;5091457;28;20028;-57
2021/11/06 04:57:59;;;;;;;4.90;2.95;;;;;;;9.59;59.04;99404.00;5090926;28;20053;-55
2021/11/06 05:00:24;;;;;;;5.82;3.17;;;;;;;9.58;59.12;99394.28;5090853;28;20055;-55
2021/11/06 05:02:50;;;;;;;3.95;3.13;;;;;;;9.62;58.78;99401.91;5091296;28;20464;-57
2021/11/06 05:05:16;;;;;;;6.97;3.30;;;;;;;9.64;58.64;99412.47;5073146;28;20467;-57
2021/11/06 05:07:42;;;;;;;3.33;2.85;;;;;;;9.64;58.59;99420.50;5091041;28;20032;-55
2021/11/06 05:10:08;;;;;;;4.40;2.75;;;;;;;9.42;58.86;99392.06;5091078;28;20038;-58
2021/11/06 05:12:35;;;;;;;3.10;2.80;;;;;;;9.56;58.69;99401.59;5091105;28;20452;-57
2021/11/06 05:15:01;;;;;;;4.18;2.88;;;;;;;9.47;59.14;99396.03;5090756;28;20020;-59
2021/11/06 05:17:26;;;;;;;3.53;2.80;;;;;;;9.43;59.09;99381.22;5090876;28;20039;-56
2021/11/06 05:19:52;;;;;;;3.10;2.50;;;;;;;9.42;58.84;99381.38;5091011;28;20113;-58
2021/11/06 05:22:18;;;;;;;5.00;3.03;;;;;;;9.49;58.95;99393.22;5091353;28;20536;-58
2021/11/06 05:24:43;;;;;;;3.10;2.67;;;;;;;9.51;58.62;99385.94;5090986;28;20024;-56
2021/11/06 05:27:09;;;;;;;3.60;2.90;;;;;;;9.47;58.78;99373.81;5091315;28;20024;-58
2021/11/06 05:29:34;;;;;;;4.57;3.08;;;;;;;9.52;58.52;99382.28;5091162;28;20032;-61
2021/11/06 05:32:00;;;;;;;5.28;3.03;;;;;;;9.52;58.81;99366.25;5091075;28;20043;-61
2021/11/06 05:34:26;;;;;;;2.97;2.60;;;;;;;9.50;58.54;99346.81;5091026;28;20067;-58
2021/11/06 05:36:52;;;;;;;3.05;2.75;;;;;;;9.47;58.71;99358.59;5091349;28;20081;-59
2021/11/06 05:39:17;;;;;;;4.78;2.67;;;;;;;9.47;59.01;99355.94;5090851;28;20059;-59
2021/11/06 05:41:43;;;;;;;5.60;3.03;;;;;;;9.49;58.75;99369.19;5090832;28;20414;-61
2021/11/06 05:44:09;;;;;;;2.67;2.42;;;;;;;9.55;58.70;99371.34;5091479;28;20024;-58
2021/11/06 05:46:35;;;;;;;4.82;2.85;;;;;;;9.60;58.16;99368.28;5090796;28;20040;-60
2021/11/06 05:49:00;;;;;;;5.45;2.60;;;;;;;9.68;58.42;99370.31;5090992;28;20036;-59
2021/11/06 05:51:26;;;;;;;2.60;2.38;;;;;;;9.75;57.65;99371.50;5072885;28;20173;-60
2021/11/06 05:53:52;;;;;;;2.65;2.35;;;;;;;9.77;58.02;99362.38;5090633;28;20925;-60
2021/11/06 05:56:18;;;;;;;2.83;2.35;;;;;;;9.73;58.02;99349.38;5090310;28;20024;-59
2021/11/06 05:58:44;;;;;;;3.20;2.10;;;;;;;9.76;57.58;99349.94;5090757;28;20020;-62
2021/11/06 06:01:10;;;;;;;3.83;2.47;;;;;;;9.83;57.88;99362.81;5073438;28;20483;-60
2021/11/06 06:03:35;;;;;;;5.40;2.15;;;;;;;9.85;57.92;99383.09;5090795;28;20154;-60
2021/11/06 06:06:01;;;;;;;4.68;2.42;;;;;;;9.86;57.85;99390.13;5091024;28;20120;-59
2021/11/06 06:08:26;;;;;;;3.50;2.50;;;;;;;9.63;58.03;99358.16;5090795;28;20032;-60
2021/11/06 06:10:53;;;;;;;2.65;2.17;;;;;;;9.83;57.72;99405.59;5090951;28;20043;-56
2021/11/06 06:13:19;;;;;;;3.65;2.70;;;;;;;9.59;58.05;99378.13;5090569;28;20073;-62
2021/11/06 06:15:44;;;;;;;5.75;2.88;;;;;;;9.89;57.60;99413.97;5092351;28;20028;-59
2021/11/06 06:18:10;;;;;;;6.82;3.17;;;;;;;9.84;57.68;99402.78;5095265;28;20415;-61
2021/11/06 06:20:36;;;;;;;5.20;2.92;;;;;;;9.80;58.31;99404.03;5093331;28;20181;-60
2021/11/06 06:23:02;;;;;;;2.83;2.60;;;;;;;9.78;57.71;99416.66;5092671;28;20043;-62
2021/11/06 06:25:27;;;;;;;3.83;2.80;;;;;;;9.73;57.87;99400.19;5093977;28;20038;-61
2021/11/06 06:27:53;;;;;;;3.65;3.08;;;;;;;9.71;58.15;99383.41;5094405;28;20024;-59
2021/11/06 06:30:19;;;;;;;4.63;3.15;;;;;;;9.59;58.27;99367.41;5093992;28;20112;-58
2021/11/06 06:32:46;;;;;;;4.78;3.17;;;;;;;9.66;58.49;99370.44;5076068;28;20032;-59
2021/11/06 06:35:13;;;;;;;4.53;2.80;;;;;;;9.50;58.56;99344.16;5093681;28;20043;-59
2021/11/06 06:37:40;;;;;;;5.40;2.72;;;;;;;9.67;58.44;99369.44;5094295;28;20038;-57
2021/11/06 06:40:07;;;;;;;6.25;2.78;;;;;;;9.58;58.09;99339.00;5094159;28;20113;-57
2021/11/06 06:42:33;;;;;;;6.45;2.97;;;;;;;9.86;58.17;99357.22;5094004;28;20042;-57
2021/11/06 06:44:59;;;;;;;5.15;2.63;;;;;;;9.88;57.91;99348.06;5093706;28;20027;-61
2021/11/06 06:47:24;;;;;;;4.53;3.17;;;;;;;9.98;57.69;99361.50;5076057;28;20468;-59
2021/11/06 06:49:50;;;;;;;3.50;3.20;;;;;;;9.99;57.62;99335.59;5084203;28;20102;-62
2021/11/06 06:52:17;;;;;;;4.68;3.30;;;;;;;10.00;57.61;99346.16;5073793;28;20047;-62
2021/11/06 06:54:42;;;;;;;3.25;2.67;;;;;;;10.04;57.27;99354.78;5073951;28;20533;-57
2021/11/06 06:57:08;;;;;;;3.00;2.58;;;;;;;9.99;57.31;99354.34;5073635;28;20036;-61
2021/11/06 06:59:34;;;;;;;6.50;3.00;;;;;;;9.52;57.39;99294.09;5073174;28;20465;-57
2021/11/06 07:02:01;;;;;;;3.00;2.80;;;;;;;9.88;57.82;99371.28;5073239;28;20464;-60
2021/11/06 07:04:27;;;;;;;5.13;3.00;;;;;;;9.81;58.15;99365.63;5072830;28;20029;-61
2021/11/06 07:06:53;;;;;;;3.83;2.55;;;;;;;9.81;57.99;99362.09;5073109;28;20037;-61
2021/11/06 07:09:20;;;;;;;4.32;2.90;;;;;;;9.80;58.11;99387.97;5073105;28;20103;-65
2021/11/06 07:11:46;;;;;;;2.97;2.60;;;;;;;9.73;57.96;99376.13;5055135;28;20103;-62
2021/11/06 07:14:12;;;;;;;3.20;2.67;;;;;;;9.78;58.14;99368.56;5073344;28;20028;-63
2021/11/06 07:16:38;;;;;;;7.22;3.03;;;;;;;9.62;58.07;99351.13;5054746;28;20044;-62
2021/11/06 07:19:03;;;;;;;5.05;3.08;;;;;;;9.79;58.37;99378.25;5072812;28;20090;-64
2021/11/06 07:21:30;;;;;;;8.05;2.72;;;;;;;9.81;58.23;99384.31;5072530;28;20044;-63
2021/11/06 07:23:56;;;;;;;3.45;2.72;;;;;;;9.83;58.05;99368.16;5072730;28;20389;-62
2021/11/06 07:26:21;;;;;;;7.60;2.72;;;;;;;9.44;58.05;99304.59;5053481;28;20045;-63
2021/11/06 07:28:47;;;;;;;3.55;2.53;;;;;;;9.87;57.85;99370.44;5072638;28;20363;-60
2021/11/06 07:31:13;;;;;;;3.63;2.53;;;;;;;9.89;58.03;99373.84;5072723;28;20476;-62
2021/11/06 07:33:38;;;;;;;5.13;3.03;;;;;;;9.91;57.69;99371.88;5067667;28;20370;-63
2021/11/06 07:36:04;;;;;;;2.80;2.60;;;;;;;9.98;57.65;99376.72;5051218;28;20051;-63
2021/11/06 07:38:29;;;;;;;2.83;2.55;;;;;;;10.02;57.87;99372.78;5052823;28;20033;-63
2021/11/06 07:40:55;;;;;;;5.00;2.75;;;;;;;10.02;57.88;99376.31;5052668;28;20029;-62
2021/11/06 07:43:20;;;;;;;4.63;2.85;;;;;;;10.10;57.57;99372.13;5052259;28;20047;-64
2021/11/06 07:45:46;;;;;;;5.57;2.67;;;;;;;10.13;57.22;99372.72;5052646;28;20041;-63
2021/11/06 07:48:11;;;;;;;3.05;2.75;;;;;;;10.12;57.86;99365.66;5051044;28;20057;-63
2021/11/06 07:50:37;;;;;;;5.25;2.75;;;;;;;10.15;57.69;99360.06;5052146;28;20021;-64
2021/11/06 07:53:03;;;;;;;4.65;2.53;;;;;;;10.17;57.52;99359.91;5062943;28;20110;-64
2021/11/06 07:55:28;;;;;;;3.05;2.15;;;;;;;10.14;57.37;99350.34;5072644;28;20373;-62
2021/11/06 07:57:54;;;;;;;5.45;2.70;;;;;;;10.20;57.12;99356.97;5072259;28;20448;-62
2021/11/06 08:00:19;;;;;;;2.92;2.15;;;;;;;10.18;57.29;99353.56;5071856;28;20024;-62
2021/11/06 08:02:46;;;;;;;3.30;2.55;;;;;;;9.89;57.45;99317.69;5057053;28;20119;-63
2021/11/06 08:05:18;;;;;;;5.05;2.47;;;;;;;10.19;57.77;99357.94;5052098;28;20076;-62
2021/11/06 08:07:43;;;;;;;3.40;2.45;;;;;;;10.15;57.46;99365.41;5050801;28;20036;-63
2021/11/06 08:10:10;;;;;;;3.05;1.83;;;;;;;10.20;57.15;99363.19;5051740;28;20291;-63
2021/11/06 08:12:41;;;;;;;2.88;2.38;;;;;;;10.22;57.40;99365.72;5051740;28;20056;-61
2021/11/06 08:15:08;;;;;;;2.55;2.35;;;;;;;10.24;57.46;99361.06;5052189;28;20033;-62
2021/11/06 08:17:34;;;;;;;3.97;2.45;;;;;;;10.24;57.74;99368.25;5051772;28;20084;-63
2021/11/06 08:20:00;;;;;;;2.53;2.15;;;;;;;10.23;57.09;99372.75;5051523;28;20071;-62
2021/11/06 08:22:25;;;;;;;4.35;2.60;;;;;;;10.14;57.34;99361.03;5051581;28;20071;-64
2021/11/06 08:24:51;;;;;;;5.13;2.53;;;;;;;10.11;57.45;99355.94;5051467;28;20064;-62
2021/11/06 08:27:17;;;;;;;6.15;2.50;;;;;;;10.11;57.78;99339.06;5033789;28;20040;-63
2021/11/06 08:29:43;;;;;;;3.30;2.20;;;;;;;10.12;57.76;99343.41;5051018;28;20021;-64
2021/11/06 08:32:09;;;;;;;2.65;2.15;;;;;;;10.13;57.56;99329.94;5051334;28;20021;-63
2021/11/06 08:34:34;;;;;;;4.68;2.58;;;;;;;10.09;57.23;99323.13;5051694;28;20477;-62
2021/11/06 08:37:00;;;;;;;3.70;2.20;;;;;;;10.13;57.56;99337.94;5050329;28;20112;-64
2021/11/06 08:39:27;;;;;;;4.57;2.78;;;;;;;10.15;57.41;99319.06;5050627;28;20500;-62
2021/11/06 08:41:55;;;;;;;2.95;2.50;;;;;;;10.38;56.97;99330.47;5051107;28;20035;-64
2021/11/06 08:44:21;;;;;;;4.15;2.50;;;;;;;10.45;56.44;99320.94;5051362;28;20020;-62
2021/11/06 08:46:50;;;;;;;6.15;2.40;;;;;;;10.38;56.23;99298.34;5051955;28;20028;-64
2021/11/06 08:49:16;;;;;;;6.32;2.65;;;;;;;10.63;56.14;99322.97;5051279;28;20108;-63
2021/11/06 08:51:47;;;;;;;2.83;2.30;;;;;;;10.69;55.98;99327.75;5051209;28;20120;-61
2021/11/06 08:54:13;;;;;;;4.32;2.25;;;;;;;10.83;55.58;99325.66;5034067;28;20113;-66
2021/11/06 08:56:40;;;;;;;4.28;2.20;;;;;;;10.85;55.35;99335.25;5050993;28;20025;-59
2021/11/06 08:59:06;;;;;;;5.75;2.22;;;;;;;10.90;55.34;99324.16;5050970;28;20041;-62
2021/11/06 09:01:32;;;;;;;5.90;2.05;;;;;;;10.93;55.11;99323.88;5050995;28;20358;-62
2021/11/06 09:03:58;;;;;;;5.55;2.08;;;;;;;10.93;55.04;99331.91;5050933;28;20338;-63
2021/11/06 09:06:24;;;;;;;3.03;2.03;;;;;;;10.89;55.51;99330.47;5049488;28;20040;-65
2021/11/06 09:08:49;;;;;;;4.72;2.35;;;;;;;10.70;55.29;99307.16;5050987;28;20040;-65
2021/11/06 09:11:16;;;;;;;4.53;2.20;;;;;;;10.76;55.72;99322.72;5051952;28;20033;-64
2021/11/06 09:13:49;;;;;;;2.72;2.20;;;;;;;10.70;55.52;99324.09;5070973;28;20027;-66
2021/11/06 09:16:15;;;;;;;2.65;1.90;;;;;;;10.71;55.88;99308.88;5069330;28;20051;-63
2021/11/06 09:18:41;;;;;;;2.95;2.10;;;;;;;10.81;55.54;99314.25;5070956;28;20392;-65
2021/11/06 09:21:08;;;;;;;3.35;2.22;;;;;;;10.84;55.45;99320.19;5070899;28;20029;-65
2021/11/06 09:23:35;;;;;;;3.50;2.28;;;;;;;10.79;55.54;99309.03;5070149;28;20036;-64
2021/11/06 09:26:01;;;;;;;6.13;2.20;;;;;;;10.86;55.47;99299.47;5068733;28;20111;-65
2021/11/06 09:28:27;;;;;;;2.10;1.90;;;;;;;10.82;55.49;99290.00;5069551;28;20024;-64
2021/11/06 09:30:54;;;;;;;3.15;2.30;;;;;;;10.94;55.66;99296.09;5052594;28;20491;-62
2021/11/06 09:33:20;;;;;;;2.95;2.05;;;;;;;10.94;55.48;99281.84;5070864;28;20020;-63
2021/11/06 09:35:45;;;;;;;3.85;2.00;;;;;;;11.03;55.28;99284.53;5070551;28;20029;-63
2021/11/06 09:38:11;;;;;;;4.05;2.10;;;;;;;10.97;54.92;99276.19;5070507;28;20028;-64
2021/11/06 09:40:37;;;;;;;3.13;2.28;;;;;;;11.01;55.11;99274.97;5070557;28;20113;-63
2021/11/06 09:43:03;;;;;;;7.40;2.28;;;;;;;11.01;55.03;99288.34;5052673;28;20314;-63
2021/11/06 09:45:29;;;;;;;4.03;2.20;;;;;;;10.90;55.14;99275.94;5070070;28;20028;-62
2021/11/06 09:47:55;;;;;;;5.93;2.15;;;;;;;10.80;55.46;99267.03;5070481;28;20105;-63
2021/11/06 09:50:22;;;;;;;6.18;2.42;;;;;;;10.75;55.41;99260.25;5072217;28;20028;-63
2021/11/06 09:52:50;;;;;;;2.25;1.92;;;;;;;10.77;55.66;99260.97;5073802;28;20040;-68
2021/11/06 09:55:17;;;;;;;4.53;2.05;;;;;;;10.83;55.20;99254.22;5074032;28;20032;-63
2021/11/06 09:57:43;;;;;;;4.47;2.03;;;;;;;10.97;54.60;99247.59;5072848;28;20111;-62
2021/11/06 10:00:10;;;;;;;4.60;1.75;;;;;;;11.14;54.00;99247.88;5073071;28;20365;-63
2021/11/06 10:02:35;;;;;;;3.97;1.70;;;;;;;11.26;53.28;99230.66;5074331;28;20047;-64
2021/11/06 10:05:01;;;;;;;4.13;1.70;;;;;;;11.46;52.66;99244.88;5055954;28;20048;-65
2021/11/06 10:07:27;;;;;;;2.97;2.00;;;;;;;11.63;52.38;99251.34;5056388;28;20032;-64
2021/11/06 10:10:00;;;;;;;5.25;2.10;;;;;;;11.89;52.15;99261.41;5074090;28;20078;-63
2021/11/06 10:12:26;;;;;;;3.33;1.65;;;;;;;12.09;50.38;99250.66;5074540;28;20064;-64
2021/11/06 10:15:04;;;;;;;2.42;1.80;;;;;;;12.22;50.66;99265.56;5074106;28;20028;-63
2021/11/06 10:17:32;;;;;;;2.30;1.77;;;;;;;12.04;50.17;99240.34;5073834;28;20037;-62
2021/11/06 10:19:58;;;;;;;2.80;1.80;;;;;;;11.71;50.06;99204.16;5089485;28;20081;-65
2021/11/06 10:22:27;;;;;;;8.18;1.67;;;;;;;11.92;49.83;99266.50;5073944;28;20442;-64
2021/11/06 10:24:56;;;;;;;6.80;1.75;;;;;;;11.86;49.86;99242.94;5073909;28;20032;-68
2021/11/06 10:27:28;;;;;;;3.55;1.35;;;;;;;11.78;49.88;99243.66;5074354;28;20026;-63
2021/11/06 10:30:05;;;;;;;4.20;1.77;;;;;;;11.73;50.61;99245.09;5072273;28;20052;-65
2021/11/06 10:32:34;;;;;;;3.17;1.33;;;;;;;11.56;50.76;99244.84;5073485;28;20033;-64
2021/11/06 10:35:17;;;;;;;2.72;1.40;;;;;;;11.58;51.08;99248.25;5055389;28;20029;-63
2021/11/06 10:37:45;;;;;;;3.95;1.48;;;;;;;11.45;50.27;99236.97;5073569;28;20040;-65
2021/11/06 10:40:11;;;;;;;4.43;1.63;;;;;;;11.30;49.88;99213.28;5055955;28;20032;-66
2021/11/06 10:42:48;;;;;;;2.60;1.40;;;;;;;11.61;50.78;99245.28;5073870;28;20223;-69
2021/11/06 10:45:17;;;;;;;2.10;1.40;;;;;;;11.29;50.03;99195.53;5073263;28;20029;-66
2021/11/06 10:48:06;;;;;;;5.78;1.30;;;;;;;11.65;50.92;99250.34;5073855;28;20059;-66
2021/11/06 10:50:37;;;;;;;1.60;1.30;;;;;;;11.65;50.05;99236.94;5055454;28;20036;-68
2021/11/06 10:53:04;;;;;;;2.70;1.38;;;;;;;11.58;49.92;99236.66;5055150;28;20384;-70
2021/11/06 10:55:35;;;;;;;1.58;1.48;;;;;;;11.56;50.01;99238.66;5073189;28;20058;-68
2021/11/06 10:58:03;;;;;;;9.95;1.63;;;;;;;11.53;49.89;99245.13;5072728;28;20029;-66
2021/11/06 11:00:28;;;;;;;3.70;1.30;;;;;;;11.47;49.95;99245.72;5071993;28;20025;-65
2021/11/06 11:02:54;;;;;;;6.00;1.45;;;;;;;11.44;49.92;99251.38;5052241;28;20049;-69
2021/11/06 11:05:36;;;;;;;2.92;1.50;;;;;;;11.55;50.57;99237.78;5070001;28;20064;-68
2021/11/06 11:08:07;;;;;;;3.85;1.63;;;;;;;11.46;49.57;99236.00;5052583;28;20488;-69
2021/11/06 11:10:35;;;;;;;3.60;1.17;;;;;;;11.47;49.91;99232.31;5068551;28;20181;-69
2021/11/06 11:13:30;;;;;;;2.63;1.70;;;;;;;11.69;50.53;99238.34;5065713;28;20128;-65
2021/11/06 11:16:11;;;;;;;2.83;1.60;;;;;;;11.46;50.15;99201.13;5053524;28;20123;-66
2021/11/06 11:18:38;;;;;;;1.45;1.35;;;;;;;11.53;49.38;99245.13;5065358;28;20041;-67
2021/11/06 11:21:25;;;;;;;3.22;1.48;;;;;;;11.48;49.68;99220.59;5050997;28;20037;-69
2021/11/06 11:24:01;;;;;;;7.70;1.63;;;;;;;11.29;50.08;99238.41;5051406;28;20035;-63
2021/11/06 11:26:29;;;;;;;1.75;1.40;;;;;;;11.16;50.25;99219.13;5018463;28;20029;-64
2021/11/06 11:28:56;;;;;;;4.43;1.30;;;;;;;11.05;49.88;99226.28;5052987;28;20131;-65
2021/11/06 11:31:22;;;;;;;2.75;1.50;;;;;;;11.00;50.01;99233.91;5052839;28;20078;-65